createdAt,value
2022-07-26T00:00:30.015Z,15.47
2022-07-26T00:01:52.515Z,20.07
2022-07-26T00:03:14.787Z,9.00
2022-07-26T00:04:36.896Z,10.80
2022-07-26T00:06:00.126Z,6.93
2022-07-26T00:07:22.261Z,8.70
2022-07-26T00:08:44.833Z,16.40
2022-07-26T00:10:08.037Z,11.93
2022-07-26T00:11:33.661Z,17.53
2022-07-26T00:12:55.749Z,14.50
2022-07-26T00:14:17.919Z,11.97
2022-07-26T00:15:40.048Z,7.30
2022-07-26T00:17:02.971Z,9.60
2022-07-26T00:18:25.350Z,9.80
2022-07-26T00:19:47.463Z,14.87
2022-07-26T00:21:09.687Z,17.10
2022-07-26T00:22:39.465Z,18.43
2022-07-26T00:24:01.713Z,9.87
2022-07-26T00:25:23.831Z,9.50
2022-07-26T00:26:46.031Z,11.23
2022-07-26T00:28:08.399Z,12.60
2022-07-26T00:29:31.906Z,8.67
2022-07-26T00:30:53.995Z,11.73
2022-07-26T00:32:16.286Z,10.93
2022-07-26T00:33:39.223Z,17.23
2022-07-26T00:35:01.478Z,9.77
2022-07-26T00:36:23.834Z,10.43
2022-07-26T00:37:46.741Z,12.97
2022-07-26T00:39:09.283Z,9.20
2022-07-26T00:40:31.927Z,14.27
2022-07-26T00:41:54.124Z,10.03
2022-07-26T00:43:16.296Z,12.70
2022-07-26T00:44:44.226Z,10.67
2022-07-26T00:46:07.383Z,17.57
2022-07-26T00:47:29.462Z,12.77
2022-07-26T00:48:51.648Z,11.00
2022-07-26T00:50:16.105Z,10.33
2022-07-26T00:51:38.530Z,10.27
2022-07-26T00:53:01.115Z,15.23
2022-07-26T00:54:23.342Z,16.67
2022-07-26T00:55:45.518Z,12.00
2022-07-26T00:57:07.691Z,9.20
2022-07-26T00:58:29.822Z,9.80
2022-07-26T00:59:52.025Z,15.87
2022-07-26T01:01:14.732Z,18.07
2022-07-26T01:02:37.198Z,14.83
2022-07-26T01:03:59.370Z,14.63
2022-07-26T01:05:22.696Z,11.70
2022-07-26T01:06:44.955Z,14.37
2022-07-26T01:08:07.231Z,17.77
2022-07-26T01:09:30.192Z,22.43
2022-07-26T01:10:55.885Z,13.07
2022-07-26T01:12:18.306Z,15.60
2022-07-26T01:13:50.827Z,12.10
2022-07-26T01:15:14.979Z,15.07
2022-07-26T01:16:37.397Z,16.43
2022-07-26T01:17:59.557Z,12.73
2022-07-26T01:19:22.171Z,18.80
2022-07-26T01:20:45.186Z,18.87
2022-07-26T01:22:11.165Z,16.00
2022-07-26T01:23:37.272Z,12.30
2022-07-26T01:24:59.432Z,11.70
2022-07-26T01:26:21.476Z,14.67
2022-07-26T01:27:47.970Z,12.90
2022-07-26T01:29:10.466Z,14.20
2022-07-26T01:30:32.804Z,19.80
2022-07-26T01:31:54.892Z,12.33
2022-07-26T01:33:17.021Z,13.80
2022-07-26T01:34:39.083Z,11.10
2022-07-26T01:36:01.725Z,14.13
2022-07-26T01:37:23.799Z,15.53
2022-07-26T01:38:45.962Z,12.57
2022-07-26T01:40:09.013Z,10.33
2022-07-26T01:41:37.890Z,19.53
2022-07-26T01:43:00.602Z,13.83
2022-07-26T01:44:23.312Z,14.73
2022-07-26T01:45:45.644Z,13.87
2022-07-26T01:47:07.987Z,11.70
2022-07-26T01:48:31.216Z,11.90
2022-07-26T01:49:53.619Z,12.93
2022-07-26T01:51:15.767Z,9.33
2022-07-26T01:52:39.311Z,14.40
2022-07-26T01:54:03.714Z,17.40
2022-07-26T01:55:26.040Z,11.37
2022-07-26T01:56:48.333Z,14.37
2022-07-26T01:58:10.477Z,12.67
2022-07-26T01:59:32.799Z,12.10
2022-07-26T02:00:54.940Z,13.90
2022-07-26T02:02:17.149Z,11.90
2022-07-26T02:03:39.365Z,11.43
2022-07-26T02:05:02.068Z,11.90
2022-07-26T02:06:24.251Z,13.63
2022-07-26T02:07:46.620Z,16.97
2022-07-26T02:09:10.653Z,13.83
2022-07-26T02:10:53.724Z,21.93
2022-07-26T02:12:17.219Z,10.93
2022-07-26T02:13:41.375Z,11.60
2022-07-26T02:15:06.336Z,10.47
2022-07-26T02:16:28.519Z,24.50
2022-07-26T02:17:50.688Z,9.97
2022-07-26T02:19:12.871Z,11.57
2022-07-26T02:20:35.395Z,14.23
2022-07-26T02:21:57.763Z,13.20
2022-07-26T02:23:20.224Z,14.67
2022-07-26T02:24:42.417Z,10.17
2022-07-26T02:26:04.498Z,8.50
2022-07-26T02:27:26.934Z,16.40
2022-07-26T02:28:49.002Z,7.43
2022-07-26T02:30:11.998Z,11.13
2022-07-26T02:31:34.093Z,10.67
2022-07-26T02:32:56.275Z,5.83
2022-07-26T02:34:19.100Z,7.87
2022-07-26T02:35:41.763Z,15.53
2022-07-26T02:37:04.251Z,9.73
2022-07-26T02:38:26.343Z,12.87
2022-07-26T02:39:48.400Z,7.00
2022-07-26T02:41:10.546Z,9.50
2022-07-26T02:42:32.793Z,14.37
2022-07-26T02:43:54.867Z,13.37
2022-07-26T02:45:17.069Z,13.73
2022-07-26T02:46:39.525Z,11.40
2022-07-26T02:48:01.918Z,12.47
2022-07-26T02:49:23.987Z,14.90
2022-07-26T02:50:46.224Z,13.23
2022-07-26T02:52:08.283Z,19.23
2022-07-26T02:53:30.330Z,16.07
2022-07-26T02:54:52.460Z,12.73
2022-07-26T02:56:14.530Z,12.47
2022-07-26T02:57:46.542Z,16.57
2022-07-26T02:59:09.128Z,14.97
2022-07-26T03:00:31.235Z,12.33
2022-07-26T03:01:53.501Z,13.87
2022-07-26T03:03:15.883Z,14.23
2022-07-26T03:04:37.912Z,15.47
2022-07-26T03:06:00.033Z,9.97
2022-07-26T03:07:22.155Z,10.50
2022-07-26T03:08:44.417Z,12.97
2022-07-26T03:10:07.382Z,14.33
2022-07-26T03:11:29.493Z,21.67
2022-07-26T03:12:51.969Z,16.93
2022-07-26T03:14:14.680Z,14.33
2022-07-26T03:15:36.853Z,14.03
2022-07-26T03:16:59.135Z,11.33
2022-07-26T03:18:21.214Z,8.90
2022-07-26T03:19:43.285Z,18.40
2022-07-26T03:21:07.218Z,11.53
2022-07-26T03:22:29.511Z,23.33
2022-07-26T03:23:51.621Z,15.27
2022-07-26T03:25:15.269Z,12.37
2022-07-26T03:26:37.414Z,12.90
2022-07-26T03:27:59.484Z,6.80
2022-07-26T03:29:21.633Z,11.23
2022-07-26T03:30:43.874Z,15.73
2022-07-26T03:32:06.353Z,13.40
2022-07-26T03:33:29.375Z,13.53
2022-07-26T03:34:51.536Z,13.53
2022-07-26T03:36:15.794Z,19.67
2022-07-26T03:37:45.963Z,15.30
2022-07-26T03:39:08.856Z,7.83
2022-07-26T03:40:31.064Z,13.33
2022-07-26T03:41:53.129Z,8.97
2022-07-26T03:43:15.272Z,13.37
2022-07-26T03:44:37.623Z,10.60
2022-07-26T03:45:59.752Z,16.30
2022-07-26T03:47:21.831Z,14.10
2022-07-26T03:48:43.988Z,15.07
2022-07-26T03:50:06.906Z,14.60
2022-07-26T03:51:29.054Z,11.27
2022-07-26T03:52:51.135Z,15.50
2022-07-26T03:54:13.777Z,12.83
2022-07-26T03:55:54.798Z,11.97
2022-07-26T03:57:16.903Z,14.47
2022-07-26T03:58:38.972Z,9.13
2022-07-26T04:00:01.071Z,6.57
2022-07-26T04:01:23.308Z,10.07
2022-07-26T04:02:46.357Z,8.70
2022-07-26T04:04:10.701Z,9.13
2022-07-26T04:05:33.632Z,7.50
2022-07-26T04:06:58.246Z,12.63
2022-07-26T04:08:26.153Z,11.03
2022-07-26T04:09:48.224Z,11.00
2022-07-26T04:11:10.356Z,16.47
2022-07-26T04:12:32.454Z,13.27
2022-07-26T04:13:54.604Z,10.33
2022-07-26T04:15:18.881Z,9.20
2022-07-26T04:16:43.621Z,8.50
2022-07-26T04:18:06.170Z,12.93
2022-07-26T04:19:28.280Z,6.60
2022-07-26T04:20:50.709Z,9.63
2022-07-26T04:22:12.823Z,10.17
2022-07-26T04:23:34.928Z,17.30
2022-07-26T04:24:57.199Z,6.13
2022-07-26T04:26:21.458Z,6.63
2022-07-26T04:27:43.561Z,10.40
2022-07-26T04:29:05.700Z,6.27
2022-07-26T04:30:29.764Z,10.07
2022-07-26T04:31:52.089Z,10.90
2022-07-26T04:33:14.304Z,8.50
2022-07-26T04:34:36.436Z,13.13
2022-07-26T04:35:59.141Z,9.43
2022-07-26T04:37:21.336Z,17.13
2022-07-26T04:38:44.133Z,10.20
2022-07-26T04:40:07.055Z,16.23
2022-07-26T04:41:29.147Z,10.30
2022-07-26T04:42:51.983Z,12.87
2022-07-26T04:44:14.001Z,13.93
2022-07-26T04:45:36.206Z,8.67
2022-07-26T04:46:58.371Z,11.03
2022-07-26T04:48:20.589Z,13.33
2022-07-26T04:49:42.690Z,9.13
2022-07-26T04:51:04.912Z,10.13
2022-07-26T04:52:26.989Z,18.53
2022-07-26T04:53:49.167Z,13.93
2022-07-26T04:55:11.446Z,10.70
2022-07-26T04:56:33.552Z,8.53
2022-07-26T04:57:55.616Z,6.67
2022-07-26T04:59:21.644Z,11.30
2022-07-26T05:01:03.241Z,13.23
2022-07-26T05:02:26.634Z,5.97
2022-07-26T05:03:48.763Z,7.97
2022-07-26T05:05:10.883Z,14.00
2022-07-26T05:06:32.949Z,8.93
2022-07-26T05:07:56.991Z,6.07
2022-07-26T05:09:19.326Z,11.73
2022-07-26T05:10:43.264Z,11.10
2022-07-26T05:12:07.508Z,10.50
2022-07-26T05:13:31.031Z,7.63
2022-07-26T05:14:53.902Z,14.23
2022-07-26T05:16:16.112Z,11.30
2022-07-26T05:17:42.778Z,10.60
2022-07-26T05:19:04.918Z,11.20
2022-07-26T05:20:27.378Z,20.17
2022-07-26T05:21:49.518Z,9.73
2022-07-26T05:23:11.695Z,9.60
2022-07-26T05:24:33.780Z,12.37
2022-07-26T05:25:56.369Z,15.83
2022-07-26T05:27:18.485Z,15.03
2022-07-26T05:28:40.710Z,7.00
2022-07-26T05:30:03.357Z,15.03
2022-07-26T05:31:25.955Z,14.67
2022-07-26T05:32:48.110Z,4.73
2022-07-26T05:34:10.660Z,11.70
2022-07-26T05:35:32.878Z,9.40
2022-07-26T05:36:54.963Z,11.00
2022-07-26T05:38:17.113Z,12.30
2022-07-26T05:39:39.196Z,7.27
2022-07-26T05:41:01.249Z,9.73
2022-07-26T05:42:23.734Z,11.00
2022-07-26T05:43:45.909Z,11.47
2022-07-26T05:45:08.791Z,11.03
2022-07-26T05:46:30.918Z,12.43
2022-07-26T05:47:53.606Z,7.03
2022-07-26T05:49:15.734Z,12.60
2022-07-26T05:50:37.919Z,10.77
2022-07-26T05:52:01.479Z,8.30
2022-07-26T05:53:23.656Z,14.67
2022-07-26T05:54:45.752Z,9.60
2022-07-26T05:56:08.272Z,6.93
2022-07-26T05:57:30.387Z,6.20
2022-07-26T05:58:52.552Z,7.93
2022-07-26T06:00:15.029Z,12.10
2022-07-26T06:01:37.107Z,6.50
2022-07-26T06:02:59.246Z,10.63
2022-07-26T06:04:21.307Z,7.77
2022-07-26T06:05:47.793Z,7.40
2022-07-26T06:07:09.899Z,8.63
2022-07-26T06:08:32.225Z,9.47
2022-07-26T06:09:54.294Z,9.83
2022-07-26T06:11:16.415Z,13.13
2022-07-26T06:12:38.537Z,21.57
2022-07-26T06:14:00.573Z,6.00
2022-07-26T06:15:22.605Z,10.90
2022-07-26T06:16:45.425Z,13.53
2022-07-26T06:18:07.877Z,10.47
2022-07-26T06:19:30.353Z,8.57
2022-07-26T06:20:52.750Z,10.90
2022-07-26T06:22:14.960Z,11.07
2022-07-26T06:23:37.062Z,7.10
2022-07-26T06:24:59.146Z,8.37
2022-07-26T06:26:23.735Z,11.67
2022-07-26T06:27:45.775Z,7.67
2022-07-26T06:29:08.276Z,7.80
2022-07-26T06:30:30.463Z,10.17
2022-07-26T06:31:52.592Z,9.00
2022-07-26T06:33:14.849Z,8.20
2022-07-26T06:34:36.914Z,6.87
2022-07-26T06:35:59.080Z,8.63
2022-07-26T06:37:21.390Z,9.73
2022-07-26T06:38:43.487Z,14.27
2022-07-26T06:40:06.967Z,7.70
2022-07-26T06:41:29.015Z,15.13
2022-07-26T06:42:51.028Z,10.23
2022-07-26T06:44:13.079Z,15.60
2022-07-26T06:45:35.308Z,13.67
2022-07-26T06:46:57.376Z,6.20
2022-07-26T06:48:19.443Z,9.67
2022-07-26T06:49:41.894Z,9.57
2022-07-26T06:51:05.047Z,16.30
2022-07-26T06:52:27.193Z,15.90
2022-07-26T06:53:49.549Z,8.23
2022-07-26T06:55:12.783Z,12.00
2022-07-26T06:56:34.932Z,7.50
2022-07-26T06:57:56.991Z,7.70
2022-07-26T06:59:19.158Z,7.40
2022-07-26T07:00:41.396Z,7.97
2022-07-26T07:02:04.413Z,8.83
2022-07-26T07:03:26.743Z,12.40
2022-07-26T07:04:48.900Z,7.97
2022-07-26T07:06:11.021Z,9.73
2022-07-26T07:07:35.009Z,11.90
2022-07-26T07:08:57.171Z,12.73
2022-07-26T07:10:19.379Z,5.80
2022-07-26T07:11:46.041Z,11.27
2022-07-26T07:13:10.876Z,6.90
2022-07-26T07:14:33.622Z,4.70
2022-07-26T07:15:55.734Z,10.30
2022-07-26T07:17:20.899Z,9.33
2022-07-26T07:18:43.007Z,4.87
2022-07-26T07:20:05.844Z,7.60
2022-07-26T07:21:27.930Z,10.80
2022-07-26T07:22:50.109Z,8.00
2022-07-26T07:24:12.416Z,5.20
2022-07-26T07:25:34.773Z,6.97
2022-07-26T07:26:56.875Z,10.00
2022-07-26T07:28:19.710Z,6.47
2022-07-26T07:29:42.087Z,7.60
2022-07-26T07:31:06.270Z,6.47
2022-07-26T07:32:28.759Z,6.07
2022-07-26T07:33:53.594Z,7.33
2022-07-26T07:35:16.171Z,16.07
2022-07-26T07:36:41.609Z,5.60
2022-07-26T07:38:04.325Z,12.00
2022-07-26T07:39:27.158Z,7.53
2022-07-26T07:40:56.922Z,7.73
2022-07-26T07:42:19.591Z,13.87
2022-07-26T07:43:41.730Z,7.17
2022-07-26T07:45:05.748Z,4.23
2022-07-26T07:46:28.179Z,7.60
2022-07-26T07:47:50.316Z,5.50
2022-07-26T07:49:12.826Z,7.50
2022-07-26T07:50:35.433Z,7.83
2022-07-26T07:51:57.463Z,12.00
2022-07-26T07:53:19.899Z,5.77
2022-07-26T07:54:42.373Z,7.50
2022-07-26T07:56:04.821Z,6.50
2022-07-26T07:57:27.893Z,5.07
2022-07-26T07:58:52.327Z,6.97
2022-07-26T08:00:16.720Z,3.60
2022-07-26T08:01:41.103Z,5.77
2022-07-26T08:03:03.959Z,6.30
2022-07-26T08:04:26.255Z,10.40
2022-07-26T08:05:49.587Z,6.53
2022-07-26T08:07:12.576Z,5.03
2022-07-26T08:08:37.863Z,6.70
2022-07-26T08:10:00.692Z,11.30
2022-07-26T08:11:22.896Z,7.20
2022-07-26T08:12:52.001Z,6.40
2022-07-26T08:14:14.055Z,4.30
2022-07-26T08:15:36.122Z,4.67
2022-07-26T08:17:01.521Z,7.27
2022-07-26T08:18:24.916Z,5.17
2022-07-26T08:19:47.069Z,5.87
2022-07-26T08:21:09.732Z,3.57
2022-07-26T08:22:32.973Z,4.20
2022-07-26T08:23:55.044Z,6.77
2022-07-26T08:25:17.182Z,4.80
2022-07-26T08:26:39.275Z,4.70
2022-07-26T08:28:03.618Z,6.23
2022-07-26T08:29:26.144Z,2.80
2022-07-26T08:30:48.225Z,8.93
2022-07-26T08:32:10.273Z,2.63
2022-07-26T08:33:32.332Z,4.07
2022-07-26T08:34:54.418Z,5.33
2022-07-26T08:36:36.780Z,3.43
2022-07-26T08:38:01.644Z,5.40
2022-07-26T08:39:23.785Z,4.63
2022-07-26T08:40:45.901Z,4.87
2022-07-26T08:42:22.549Z,3.70
2022-07-26T08:43:51.558Z,5.30
2022-07-26T08:45:24.205Z,4.83
2022-07-26T08:46:46.322Z,7.43
2022-07-26T08:48:17.736Z,6.70
2022-07-26T08:49:40.676Z,6.00
2022-07-26T08:51:10.985Z,4.47
2022-07-26T08:52:33.554Z,5.70
2022-07-26T08:54:04.834Z,2.77
2022-07-26T08:55:32.278Z,5.13
2022-07-26T08:57:02.035Z,6.37
2022-07-26T08:58:24.616Z,1.63
2022-07-26T09:00:20.268Z,3.10
2022-07-26T09:02:00.347Z,5.40
2022-07-26T09:03:26.351Z,6.40
2022-07-26T09:04:48.468Z,4.70
2022-07-26T09:06:28.189Z,5.00
2022-07-26T09:07:50.543Z,4.13
2022-07-26T09:09:12.783Z,5.87
2022-07-26T09:10:38.991Z,9.60
2022-07-26T09:12:17.406Z,3.70
2022-07-26T09:13:52.542Z,5.57
2022-07-26T09:15:20.730Z,3.47
2022-07-26T09:16:57.561Z,3.30
2022-07-26T09:18:27.540Z,4.73
2022-07-26T09:20:11.678Z,11.20
2022-07-26T09:21:38.957Z,5.07
2022-07-26T09:23:04.952Z,3.60
2022-07-26T09:24:37.252Z,7.20
2022-07-26T09:26:04.573Z,4.90
2022-07-26T09:27:35.774Z,3.40
2022-07-26T09:29:05.834Z,5.37
2022-07-26T09:30:30.452Z,4.13
2022-07-26T09:31:52.683Z,4.23
2022-07-26T09:33:14.874Z,2.03
2022-07-26T09:34:36.944Z,3.97
2022-07-26T09:36:07.461Z,1.40
2022-07-26T09:37:37.297Z,2.93
2022-07-26T09:39:04.209Z,1.93
2022-07-26T09:40:34.486Z,2.70
2022-07-26T09:42:24.904Z,1.00
2022-07-26T09:43:38.680Z,1.70
2022-07-26T09:45:01.463Z,5.53
2022-07-26T09:46:26.184Z,2.23
2022-07-26T09:47:48.632Z,2.20
2022-07-26T09:49:21.549Z,0.93
2022-07-26T09:50:48.601Z,2.90
2022-07-26T09:52:21.627Z,1.87
2022-07-26T09:53:47.443Z,2.70
2022-07-26T09:55:10.309Z,2.00
2022-07-26T09:56:51.964Z,0.83
2022-07-26T09:58:15.577Z,1.13
2022-07-26T09:59:37.664Z,2.60
2022-07-26T10:01:02.484Z,1.93
2022-07-26T10:02:24.969Z,1.83
2022-07-26T10:03:47.067Z,1.70
2022-07-26T10:05:09.360Z,1.40
2022-07-26T10:06:32.223Z,0.83
2022-07-26T10:07:55.776Z,4.90
2022-07-26T10:09:22.914Z,4.57
2022-07-26T10:11:07.281Z,2.60
2022-07-26T10:12:32.897Z,9.40
2022-07-26T10:13:57.454Z,1.13
2022-07-26T10:15:43.230Z,4.97
2022-07-26T10:17:31.164Z,2.00
2022-07-26T10:18:54.060Z,2.50
2022-07-26T10:20:40.980Z,1.10
2022-07-26T10:22:27.748Z,2.40
2022-07-26T10:23:51.457Z,1.00
2022-07-26T10:25:19.892Z,2.97
2022-07-26T10:26:45.472Z,5.20
2022-07-26T10:28:23.895Z,7.13
2022-07-26T10:29:46.094Z,3.03
2022-07-26T10:31:20.332Z,1.53
2022-07-26T10:32:54.491Z,2.80
2022-07-26T10:35:57.154Z,1.73
2022-07-26T10:37:27.653Z,2.40
2022-07-26T10:39:06.053Z,3.10
2022-07-26T10:40:31.635Z,3.83
2022-07-26T10:42:10.659Z,7.03
2022-07-26T10:43:42.492Z,4.00
2022-07-26T10:45:18.342Z,4.00
2022-07-26T10:47:00.585Z,3.73
2022-07-26T10:48:24.294Z,3.13
2022-07-26T10:49:59.394Z,1.73
2022-07-26T10:51:31.865Z,1.50
2022-07-26T10:52:59.010Z,2.03
2022-07-26T10:54:21.213Z,3.63
2022-07-26T10:55:47.123Z,2.50
2022-07-26T10:57:09.417Z,3.60
2022-07-26T10:58:42.846Z,2.03
2022-07-26T11:00:20.382Z,1.37
2022-07-26T11:01:43.287Z,2.90
2022-07-26T11:03:05.672Z,2.50
2022-07-26T11:04:27.970Z,3.33
2022-07-26T11:05:51.042Z,1.30
2022-07-26T11:07:13.651Z,2.60
2022-07-26T11:08:35.698Z,2.50
2022-07-26T11:10:01.554Z,1.93
2022-07-26T11:11:46.406Z,3.83
2022-07-26T11:13:16.718Z,1.63
2022-07-26T11:14:38.897Z,1.67
2022-07-26T11:16:04.830Z,1.30
2022-07-26T11:17:29.510Z,3.83
2022-07-26T11:18:52.411Z,1.47
2022-07-26T11:20:29.652Z,1.60
2022-07-26T11:21:57.166Z,3.60
2022-07-26T11:23:21.721Z,3.03
2022-07-26T11:24:44.962Z,2.03
2022-07-26T11:26:17.030Z,1.87
2022-07-26T11:27:57.992Z,1.50
2022-07-26T11:29:35.706Z,3.20
2022-07-26T11:31:03.687Z,2.60
2022-07-26T11:32:25.987Z,4.63
2022-07-26T11:33:50.916Z,4.00
2022-07-26T11:35:13.275Z,1.73
2022-07-26T11:36:41.517Z,3.13
2022-07-26T11:38:11.786Z,3.10
2022-07-26T11:39:36.069Z,3.80
2022-07-26T11:40:58.185Z,5.33
2022-07-26T11:42:21.577Z,1.20
2022-07-26T11:43:43.901Z,1.70
2022-07-26T11:45:10.659Z,1.93
2022-07-26T11:46:38.925Z,3.10
2022-07-26T11:48:01.223Z,4.70
2022-07-26T11:49:52.277Z,2.20
2022-07-26T11:51:12.977Z,3.00
2022-07-26T11:52:35.205Z,3.97
2022-07-26T11:54:00.008Z,1.40
2022-07-26T11:55:29.692Z,3.47
2022-07-26T11:56:55.284Z,3.40
2022-07-26T11:58:17.606Z,2.13
2022-07-26T11:59:40.241Z,5.90
2022-07-26T12:01:02.495Z,0.90
2022-07-26T12:02:24.782Z,2.00
2022-07-26T12:03:50.111Z,4.50
2022-07-26T12:05:30.491Z,3.23
2022-07-26T12:06:54.266Z,3.67
2022-07-26T12:08:16.472Z,2.50
2022-07-26T12:09:41.179Z,2.50
2022-07-26T12:11:03.337Z,2.70
2022-07-26T12:12:31.785Z,2.93
2022-07-26T12:14:02.024Z,6.13
2022-07-26T12:15:24.176Z,1.97
2022-07-26T12:16:47.417Z,6.63
2022-07-26T12:18:09.605Z,1.20
2022-07-26T12:19:31.746Z,2.90
2022-07-26T12:21:07.855Z,1.20
2022-07-26T12:22:30.395Z,4.77
2022-07-26T12:23:53.091Z,1.87
2022-07-26T12:25:25.529Z,1.70
2022-07-26T12:27:12.996Z,2.93
2022-07-26T12:28:42.162Z,1.70
2022-07-26T12:30:04.268Z,3.20
2022-07-26T12:31:32.194Z,3.70
2022-07-26T12:33:02.362Z,3.83
2022-07-26T12:34:25.355Z,3.37
2022-07-26T12:35:47.465Z,1.77
2022-07-26T12:37:15.341Z,2.70
2022-07-26T12:38:41.039Z,2.90
2022-07-26T12:40:10.832Z,1.53
2022-07-26T12:41:32.959Z,1.97
2022-07-26T12:43:02.756Z,5.50
2022-07-26T12:44:25.173Z,4.17
2022-07-26T12:45:47.381Z,2.20
2022-07-26T12:47:09.491Z,16.57
2022-07-26T12:48:31.674Z,3.53
2022-07-26T12:49:54.125Z,2.63
2022-07-26T12:51:16.254Z,7.03
2022-07-26T12:52:38.993Z,3.00
2022-07-26T12:54:01.304Z,3.50
2022-07-26T12:55:23.371Z,2.70
2022-07-26T12:56:46.531Z,2.00
2022-07-26T12:58:10.966Z,1.37
2022-07-26T12:59:33.049Z,3.77
2022-07-26T13:00:55.188Z,2.07
2022-07-26T13:02:18.789Z,1.83
2022-07-26T13:03:40.899Z,2.07
2022-07-26T13:05:04.451Z,5.03
2022-07-26T13:06:26.745Z,3.10
2022-07-26T13:07:49.226Z,1.10
2022-07-26T13:09:11.375Z,9.03
2022-07-26T13:10:35.008Z,2.60
2022-07-26T13:11:57.861Z,1.97
2022-07-26T13:13:19.982Z,1.90
2022-07-26T13:14:43.019Z,3.10
2022-07-26T13:16:11.175Z,3.63
2022-07-26T13:17:34.053Z,2.93
2022-07-26T13:18:56.142Z,5.50
2022-07-26T13:20:18.278Z,8.30
2022-07-26T13:21:40.470Z,1.50
2022-07-26T13:23:03.249Z,3.73
2022-07-26T13:24:27.520Z,4.90
2022-07-26T13:25:50.940Z,4.03
2022-07-26T13:27:13.832Z,3.03
2022-07-26T13:28:36.195Z,4.43
2022-07-26T13:29:58.382Z,3.17
2022-07-26T13:31:20.864Z,5.80
2022-07-26T13:32:43.160Z,7.33
2022-07-26T13:34:05.613Z,3.03
2022-07-26T13:35:28.184Z,4.30
2022-07-26T13:36:51.161Z,3.17
2022-07-26T13:38:13.312Z,3.63
2022-07-26T13:39:35.443Z,3.53
2022-07-26T13:40:57.544Z,1.80
2022-07-26T13:42:20.780Z,6.20
2022-07-26T13:43:42.986Z,9.87
2022-07-26T13:45:06.829Z,4.73
2022-07-26T13:46:33.674Z,7.23
2022-07-26T13:47:56.096Z,4.23
2022-07-26T13:49:18.344Z,7.50
2022-07-26T13:50:40.519Z,3.77
2022-07-26T13:52:03.206Z,4.40
2022-07-26T13:53:25.738Z,4.53
2022-07-26T13:54:47.819Z,5.47
2022-07-26T13:56:10.419Z,4.30
2022-07-26T13:57:49.607Z,3.40
2022-07-26T13:59:15.482Z,3.63
2022-07-26T14:00:38.135Z,2.80
2022-07-26T14:02:00.458Z,3.73
2022-07-26T14:03:22.868Z,5.73
2022-07-26T14:04:45.051Z,2.00
2022-07-26T14:06:07.195Z,4.80
2022-07-26T14:07:29.331Z,4.03
2022-07-26T14:08:51.390Z,5.93
2022-07-26T14:10:13.592Z,4.63
2022-07-26T14:11:36.866Z,5.10
2022-07-26T14:12:59.413Z,6.20
2022-07-26T14:14:21.684Z,2.93
2022-07-26T14:15:43.800Z,6.37
2022-07-26T14:17:05.966Z,3.87
2022-07-26T14:18:28.266Z,5.80
2022-07-26T14:19:51.449Z,3.80
2022-07-26T14:21:13.732Z,4.40
2022-07-26T14:22:35.925Z,3.00
2022-07-26T14:23:58.644Z,5.23
2022-07-26T14:25:21.863Z,7.13
2022-07-26T14:26:43.971Z,9.27
2022-07-26T14:28:06.325Z,8.83
2022-07-26T14:29:28.763Z,4.17
2022-07-26T14:30:50.937Z,3.43
2022-07-26T14:32:18.028Z,6.53
2022-07-26T14:33:44.424Z,5.07
2022-07-26T14:35:07.161Z,8.43
2022-07-26T14:36:29.350Z,2.60
2022-07-26T14:37:51.471Z,5.97
2022-07-26T14:39:13.718Z,10.13
2022-07-26T14:40:36.551Z,10.33
2022-07-26T14:41:58.615Z,5.03
2022-07-26T14:43:20.792Z,2.80
2022-07-26T14:44:44.724Z,5.27
2022-07-26T14:46:07.057Z,2.80
2022-07-26T14:47:29.248Z,3.10
2022-07-26T14:48:54.896Z,1.87
2022-07-26T14:50:17.352Z,7.57
2022-07-26T14:51:39.559Z,8.77
2022-07-26T14:53:01.682Z,4.43
2022-07-26T14:54:23.881Z,3.60
2022-07-26T14:55:46.054Z,7.90
2022-07-26T14:57:08.250Z,5.50
2022-07-26T14:58:30.428Z,9.63
2022-07-26T14:59:52.548Z,3.77
2022-07-26T15:01:14.881Z,2.77
2022-07-26T15:02:42.894Z,5.13
2022-07-26T15:04:05.190Z,6.20
2022-07-26T15:05:27.888Z,9.37
2022-07-26T15:06:49.981Z,3.37
2022-07-26T15:08:12.202Z,8.30
2022-07-26T15:09:34.338Z,2.53
2022-07-26T15:10:56.513Z,6.43
2022-07-26T15:12:18.642Z,2.70
2022-07-26T15:13:41.142Z,8.73
2022-07-26T15:15:03.979Z,7.17
2022-07-26T15:16:26.379Z,9.37
2022-07-26T15:17:48.673Z,6.90
2022-07-26T15:19:10.843Z,7.83
2022-07-26T15:20:33.344Z,5.00
2022-07-26T15:21:55.665Z,7.90
2022-07-26T15:23:18.514Z,3.97
2022-07-26T15:24:40.662Z,8.83
2022-07-26T15:26:03.125Z,4.50
2022-07-26T15:27:25.198Z,3.23
2022-07-26T15:28:47.352Z,6.70
2022-07-26T15:30:14.785Z,6.00
2022-07-26T15:31:38.014Z,9.57
2022-07-26T15:33:02.064Z,4.10
2022-07-26T15:34:24.377Z,8.93
2022-07-26T15:35:46.647Z,7.27
2022-07-26T15:37:09.588Z,6.17
2022-07-26T15:38:31.781Z,4.30
2022-07-26T15:39:53.918Z,5.27
2022-07-26T15:41:16.022Z,5.53
2022-07-26T15:42:44.228Z,8.20
2022-07-26T15:44:09.575Z,4.20
2022-07-26T15:45:32.774Z,6.83
2022-07-26T15:46:55.531Z,9.50
2022-07-26T15:48:22.389Z,6.73
2022-07-26T15:49:45.134Z,4.73
2022-07-26T15:51:07.245Z,4.93
2022-07-26T15:52:29.428Z,8.17
2022-07-26T15:53:51.648Z,4.87
2022-07-26T15:55:15.663Z,8.03
2022-07-26T15:56:38.292Z,3.97
2022-07-26T15:58:00.428Z,4.20
2022-07-26T15:59:22.519Z,4.87
2022-07-26T16:00:44.678Z,5.23
2022-07-26T16:02:07.996Z,12.17
2022-07-26T16:03:30.659Z,7.43
2022-07-26T16:04:52.782Z,4.90
2022-07-26T16:06:14.938Z,3.03
2022-07-26T16:07:37.648Z,11.33
2022-07-26T16:09:19.115Z,2.00
2022-07-26T16:10:42.143Z,8.97
2022-07-26T16:12:06.259Z,10.70
2022-07-26T16:13:28.523Z,5.33
2022-07-26T16:14:50.567Z,4.80
2022-07-26T16:16:12.900Z,11.23
2022-07-26T16:17:35.308Z,7.10
2022-07-26T16:18:57.856Z,5.73
2022-07-26T16:20:20.347Z,7.03
2022-07-26T16:21:42.729Z,4.03
2022-07-26T16:23:04.868Z,7.03
2022-07-26T16:24:27.154Z,6.23
2022-07-26T16:25:49.536Z,8.40
2022-07-26T16:27:11.689Z,7.33
2022-07-26T16:28:34.463Z,10.80
2022-07-26T16:29:56.560Z,8.90
2022-07-26T16:31:18.743Z,9.60
2022-07-26T16:32:41.719Z,7.10
2022-07-26T16:34:03.841Z,9.40
2022-07-26T16:36:33.664Z,5.10
2022-07-26T16:37:55.749Z,5.83
2022-07-26T16:39:17.938Z,4.93
2022-07-26T16:40:40.156Z,4.10
2022-07-26T16:42:06.763Z,10.63
2022-07-26T16:43:29.672Z,8.90
2022-07-26T16:44:51.879Z,6.67
2022-07-26T16:46:14.065Z,8.63
2022-07-26T16:47:36.262Z,11.17
2022-07-26T16:48:58.627Z,9.77
2022-07-26T16:50:27.314Z,8.20
2022-07-26T16:51:52.672Z,10.20
2022-07-26T16:53:14.809Z,6.10
2022-07-26T16:54:36.929Z,5.80
2022-07-26T16:55:59.258Z,19.17
2022-07-26T16:57:21.333Z,7.03
2022-07-26T16:58:43.491Z,11.70
2022-07-26T17:00:09.487Z,6.13
2022-07-26T17:01:31.588Z,6.70
2022-07-26T17:02:53.685Z,5.53
2022-07-26T17:04:16.650Z,8.67
2022-07-26T17:05:38.861Z,17.73
2022-07-26T17:07:24.391Z,9.43
2022-07-26T17:08:43.319Z,8.10
2022-07-26T17:10:07.042Z,10.73
2022-07-26T17:11:29.117Z,12.57
2022-07-26T17:12:51.175Z,6.10
2022-07-26T17:14:16.057Z,8.83
2022-07-26T17:15:38.338Z,4.63
2022-07-26T17:17:00.397Z,7.40
2022-07-26T17:18:22.575Z,5.27
2022-07-26T17:19:44.708Z,6.37
2022-07-26T17:21:07.129Z,11.00
2022-07-26T17:22:29.254Z,5.10
2022-07-26T17:23:52.492Z,16.60
2022-07-26T17:25:14.656Z,3.80
2022-07-26T17:26:37.350Z,13.27
2022-07-26T17:27:59.733Z,5.70
2022-07-26T17:29:21.826Z,14.73
2022-07-26T17:30:43.943Z,4.47
2022-07-26T17:32:06.673Z,6.17
2022-07-26T17:33:28.904Z,9.13
2022-07-26T17:34:51.034Z,7.73
2022-07-26T17:36:24.115Z,9.70
2022-07-26T17:37:46.550Z,5.30
2022-07-26T17:39:09.881Z,9.03
2022-07-26T17:40:37.342Z,5.47
2022-07-26T17:42:00.870Z,5.40
2022-07-26T17:43:23.007Z,8.50
2022-07-26T17:44:46.100Z,6.13
2022-07-26T17:46:08.682Z,11.47
2022-07-26T17:47:30.993Z,7.03
2022-07-26T17:48:53.322Z,5.40
2022-07-26T17:51:58.600Z,13.23
2022-07-26T17:53:21.221Z,7.17
2022-07-26T17:54:58.821Z,10.67
2022-07-26T17:56:20.901Z,9.00
2022-07-26T17:57:43.283Z,17.00
2022-07-26T17:59:05.756Z,6.80
2022-07-26T18:00:28.803Z,5.83
2022-07-26T18:01:54.038Z,7.90
2022-07-26T18:03:16.357Z,5.27
2022-07-26T18:04:38.494Z,6.83
2022-07-26T18:06:00.714Z,8.57
2022-07-26T18:07:22.888Z,13.10
2022-07-26T18:08:45.066Z,8.87
2022-07-26T18:10:07.691Z,9.17
2022-07-26T18:11:29.818Z,8.90
2022-07-26T18:12:51.859Z,9.47
2022-07-26T18:14:13.973Z,9.50
2022-07-26T18:15:36.061Z,5.60
2022-07-26T18:16:58.200Z,8.10
2022-07-26T18:18:20.428Z,9.00
2022-07-26T18:19:42.524Z,7.60
2022-07-26T18:21:04.600Z,12.00
2022-07-26T18:22:27.273Z,9.77
2022-07-26T18:24:07.016Z,7.90
2022-07-26T18:25:31.479Z,7.40
2022-07-26T18:26:53.690Z,8.33
2022-07-26T18:28:16.443Z,7.80
2022-07-26T18:29:38.546Z,11.20
2022-07-26T18:31:00.676Z,13.80
2022-07-26T18:32:23.185Z,11.93